createdAt,value
2023-04-23T00:00:38.894Z,217.48
2023-04-23T00:01:38.976Z,218.62
2023-04-23T00:02:38.962Z,217.87
2023-04-23T00:03:39.177Z,216.67
2023-04-23T00:04:39.171Z,212.93
2023-04-23T00:05:38.937Z,206.09
2023-04-23T00:06:38.927Z,202.41
2023-04-23T00:07:38.929Z,204.92
2023-04-23T00:08:38.947Z,210.00
2023-04-23T00:09:38.959Z,214.40
2023-04-23T00:10:38.972Z,220.60
2023-04-23T00:11:38.966Z,224.99
2023-04-23T00:12:38.966Z,225.86
2023-04-23T00:13:38.985Z,225.63
2023-04-23T00:14:39.183Z,226.19
2023-04-23T00:15:38.994Z,225.23
2023-04-23T00:16:39.117Z,226.59
2023-04-23T00:17:39.080Z,226.15
2023-04-23T00:18:39.030Z,227.76
2023-04-23T00:19:39.033Z,225.91
2023-04-23T00:20:39.049Z,230.48
2023-04-23T00:21:39.081Z,230.61
2023-04-23T00:22:39.104Z,232.59
2023-04-23T00:23:39.184Z,231.08
2023-04-23T00:24:39.345Z,230.27
2023-04-23T00:25:39.109Z,227.61
2023-04-23T00:26:39.107Z,228.07
2023-04-23T00:27:39.111Z,226.08
2023-04-23T00:28:39.124Z,225.44
2023-04-23T00:29:39.121Z,220.35
2023-04-23T00:30:39.148Z,220.58
2023-04-23T00:31:39.188Z,219.45
2023-04-23T00:32:39.216Z,218.92
2023-04-23T00:33:39.174Z,219.04
2023-04-23T00:34:39.515Z,216.46
2023-04-23T00:35:39.201Z,214.46
2023-04-23T00:36:39.211Z,211.84
2023-04-23T00:37:39.222Z,210.19
2023-04-23T00:38:39.237Z,210.54
2023-04-23T00:39:39.265Z,211.19
2023-04-23T00:40:39.264Z,211.38
2023-04-23T00:41:39.273Z,214.59
2023-04-23T00:42:39.312Z,214.26
2023-04-23T00:43:39.309Z,218.72
2023-04-23T00:44:39.430Z,220.75
2023-04-23T00:45:39.503Z,222.06
2023-04-23T00:46:39.336Z,222.92
2023-04-23T00:47:39.412Z,224.78
2023-04-23T00:48:39.356Z,227.84
2023-04-23T00:49:39.377Z,230.42
2023-04-23T00:50:39.374Z,236.09
2023-04-23T00:51:39.401Z,235.04
2023-04-23T00:52:39.438Z,235.60
2023-04-23T00:53:39.428Z,234.76
2023-04-23T00:54:39.554Z,233.77
2023-04-23T00:55:39.453Z,234.12
2023-04-23T00:56:39.531Z,232.80
2023-04-23T00:57:39.513Z,229.67
2023-04-23T00:58:39.527Z,226.68
2023-04-23T00:59:39.536Z,228.18
2023-04-23T01:00:39.547Z,226.88
2023-04-23T01:01:39.580Z,227.92
2023-04-23T01:02:39.771Z,227.20
2023-04-23T01:03:39.693Z,226.40
2023-04-23T01:04:39.675Z,226.83
2023-04-23T01:05:39.606Z,225.13
2023-04-23T01:06:39.630Z,224.83
2023-04-23T01:07:39.722Z,223.42
2023-04-23T01:08:39.660Z,222.87
2023-04-23T01:09:39.677Z,223.92
2023-04-23T01:10:39.684Z,226.33
2023-04-23T01:11:39.700Z,225.79
2023-04-23T01:12:39.737Z,224.13
2023-04-23T01:13:39.733Z,220.21
2023-04-23T01:14:39.878Z,216.34
2023-04-23T01:15:39.751Z,215.00
2023-04-23T01:16:39.811Z,215.28
2023-04-23T01:17:39.812Z,214.44
2023-04-23T01:18:39.818Z,209.45
2023-04-23T01:19:39.822Z,206.86
2023-04-23T01:20:39.842Z,206.33
2023-04-23T01:21:39.876Z,204.99
2023-04-23T01:22:39.902Z,202.81
2023-04-23T01:23:39.903Z,200.89
2023-04-23T01:24:40.126Z,199.25
2023-04-23T01:25:39.963Z,196.49
2023-04-23T01:26:39.986Z,194.47
2023-04-23T01:27:40.003Z,195.17
2023-04-23T01:28:40.052Z,198.26
2023-04-23T01:29:40.138Z,204.14
2023-04-23T01:30:40.116Z,214.52
2023-04-23T01:31:40.081Z,221.29
2023-04-23T01:32:40.156Z,230.14
2023-04-23T01:33:40.141Z,232.58
2023-04-23T01:34:40.341Z,238.20
2023-04-23T01:35:40.172Z,241.16
2023-04-23T01:36:40.237Z,243.57
2023-04-23T01:37:40.226Z,242.38
2023-04-23T01:38:40.247Z,244.33
2023-04-23T01:39:40.278Z,246.09
2023-04-23T01:40:40.292Z,245.80
2023-04-23T01:41:40.331Z,245.87
2023-04-23T01:42:40.358Z,243.62
2023-04-23T01:43:40.358Z,244.57
2023-04-23T01:44:40.469Z,243.52
2023-04-23T01:45:40.403Z,243.42
2023-04-23T01:46:40.476Z,244.53
2023-04-23T01:47:40.471Z,241.19
2023-04-23T01:48:40.482Z,239.51
2023-04-23T01:49:40.489Z,249.92
2023-04-23T01:50:40.495Z,252.24
2023-04-23T01:51:40.506Z,249.63
2023-04-23T01:52:40.649Z,247.99
2023-04-23T01:53:40.575Z,242.22
2023-04-23T01:54:40.929Z,234.93
2023-04-23T01:55:40.617Z,232.00
2023-04-23T01:56:40.631Z,230.13
2023-04-23T01:57:40.673Z,223.73
2023-04-23T01:58:40.667Z,222.63
2023-04-23T01:59:40.714Z,221.85
2023-04-23T02:00:40.770Z,222.30
2023-04-23T02:01:40.791Z,220.18
2023-04-23T02:02:40.967Z,221.12
2023-04-23T02:03:40.945Z,222.98
2023-04-23T02:04:41.176Z,224.05
2023-04-23T02:05:40.853Z,226.48
2023-04-23T02:06:40.854Z,228.32
2023-04-23T02:07:40.898Z,230.40
2023-04-23T02:08:40.924Z,231.95
2023-04-23T02:09:40.955Z,233.44
2023-04-23T02:10:40.949Z,231.78
2023-04-23T02:11:40.987Z,231.45
2023-04-23T02:12:41.000Z,228.55
2023-04-23T02:13:41.032Z,231.81
2023-04-23T02:14:41.410Z,229.13
2023-04-23T02:15:41.072Z,230.06
2023-04-23T02:16:41.095Z,231.96
2023-04-23T02:17:41.149Z,233.46
2023-04-23T02:18:41.132Z,235.07
2023-04-23T02:19:41.160Z,235.08
2023-04-23T02:20:41.164Z,235.77
2023-04-23T02:21:41.185Z,236.14
2023-04-23T02:22:41.225Z,236.20
2023-04-23T02:23:41.261Z,236.81
2023-04-23T02:24:41.455Z,235.29
2023-04-23T02:25:41.279Z,232.99
2023-04-23T02:26:41.345Z,235.08
2023-04-23T02:27:41.358Z,234.22
2023-04-23T02:28:41.374Z,234.68
2023-04-23T02:29:41.384Z,234.63
2023-04-23T02:30:41.401Z,231.11
2023-04-23T02:31:41.485Z,235.73
2023-04-23T02:32:41.476Z,235.12
2023-04-23T02:33:41.465Z,237.42
2023-04-23T02:34:41.833Z,237.44
2023-04-23T02:35:41.519Z,240.84
2023-04-23T02:36:41.646Z,246.86
2023-04-23T02:37:41.646Z,249.49
2023-04-23T02:38:41.591Z,246.73
2023-04-23T02:39:41.589Z,247.18
2023-04-23T02:40:41.618Z,245.82
2023-04-23T02:41:41.647Z,244.20
2023-04-23T02:42:43.834Z,242.37
2023-04-23T02:43:41.707Z,242.06
2023-04-23T02:44:41.968Z,240.49
2023-04-23T02:45:41.738Z,239.65
2023-04-23T02:46:41.774Z,237.28
2023-04-23T02:47:41.795Z,234.98
2023-04-23T02:48:41.838Z,233.56
2023-04-23T02:49:41.816Z,237.85
2023-04-23T02:50:41.829Z,238.88
2023-04-23T02:51:41.862Z,240.78
2023-04-23T02:52:41.898Z,240.21
2023-04-23T02:53:41.914Z,238.46
2023-04-23T02:54:42.277Z,237.81
2023-04-23T02:55:41.956Z,236.32
2023-04-23T02:56:41.985Z,234.56
2023-04-23T02:57:42.008Z,233.08
2023-04-23T02:58:42.289Z,230.54
2023-04-23T02:59:42.047Z,232.90
2023-04-23T03:00:42.175Z,237.85
2023-04-23T03:01:42.092Z,243.73
2023-04-23T03:02:42.229Z,250.00
2023-04-23T03:03:42.263Z,248.66
2023-04-23T03:04:42.293Z,249.63
2023-04-23T03:05:42.164Z,250.00
2023-04-23T03:06:42.166Z,247.22
2023-04-23T03:07:42.199Z,238.00
2023-04-23T03:08:42.249Z,229.32
2023-04-23T03:09:42.261Z,220.25
2023-04-23T03:10:42.270Z,214.35
2023-04-23T03:11:42.279Z,212.67
2023-04-23T03:12:42.304Z,212.34
2023-04-23T03:13:42.331Z,213.04
2023-04-23T03:14:42.682Z,214.04
2023-04-23T03:15:42.409Z,214.29
2023-04-23T03:16:42.447Z,217.82
2023-04-23T03:17:42.449Z,220.60
2023-04-23T03:18:42.470Z,221.52
2023-04-23T03:19:42.489Z,218.35
2023-04-23T03:20:42.613Z,220.09
2023-04-23T03:21:42.525Z,220.53
2023-04-23T03:22:42.574Z,221.49
2023-04-23T03:23:42.567Z,224.18
2023-04-23T03:24:42.760Z,223.84
2023-04-23T03:25:42.618Z,227.86
2023-04-23T03:26:42.632Z,227.22
2023-04-23T03:27:42.672Z,227.58
2023-04-23T03:28:42.689Z,232.10
2023-04-23T03:29:42.705Z,233.55
2023-04-23T03:30:42.753Z,233.26
2023-04-23T03:31:42.742Z,231.49
2023-04-23T03:32:42.755Z,231.23
2023-04-23T03:33:42.775Z,231.87
2023-04-23T03:34:43.021Z,233.23
2023-04-23T03:35:42.824Z,233.60
2023-04-23T03:36:42.851Z,232.20
2023-04-23T03:37:42.918Z,236.25
2023-04-23T03:38:42.908Z,237.71
2023-04-23T03:39:42.927Z,236.45
2023-04-23T03:40:42.936Z,234.78
2023-04-23T03:41:42.981Z,234.30
2023-04-23T03:42:43.000Z,233.59
2023-04-23T03:43:43.118Z,232.31
2023-04-23T03:44:43.197Z,233.03
2023-04-23T03:45:43.067Z,234.90
2023-04-23T03:46:43.081Z,233.16
2023-04-23T03:47:43.089Z,236.64
2023-04-23T03:48:43.078Z,235.50
2023-04-23T03:49:43.096Z,236.36
2023-04-23T03:50:43.092Z,236.79
2023-04-23T03:51:43.093Z,237.82
2023-04-23T03:52:43.105Z,236.75
2023-04-23T03:53:43.128Z,235.90
2023-04-23T03:54:43.335Z,235.61
2023-04-23T03:55:43.118Z,234.99
2023-04-23T03:56:43.133Z,233.89
2023-04-23T03:57:43.142Z,235.88
2023-04-23T03:58:43.157Z,238.23
2023-04-23T03:59:43.155Z,239.51
2023-04-23T04:00:43.159Z,240.24
2023-04-23T04:01:43.161Z,240.59
2023-04-23T04:02:43.267Z,237.62
2023-04-23T04:03:43.378Z,233.43
2023-04-23T04:04:43.473Z,233.58
2023-04-23T04:05:43.332Z,231.23
2023-04-23T04:06:43.190Z,230.03
2023-04-23T04:07:43.219Z,228.46
2023-04-23T04:08:43.208Z,229.11
2023-04-23T04:09:43.237Z,225.73
2023-04-23T04:10:43.216Z,226.28
2023-04-23T04:11:43.260Z,226.37
2023-04-23T04:12:43.243Z,225.96
2023-04-23T04:13:43.253Z,226.14
2023-04-23T04:14:43.581Z,227.57
2023-04-23T04:15:43.302Z,227.95
2023-04-23T04:16:43.303Z,230.70
2023-04-23T04:17:43.332Z,230.53
2023-04-23T04:18:43.321Z,231.05
2023-04-23T04:19:43.381Z,233.25
2023-04-23T04:20:43.393Z,233.40
2023-04-23T04:21:43.402Z,234.48
2023-04-23T04:22:43.439Z,235.14
2023-04-23T04:23:43.471Z,236.36
2023-04-23T04:24:43.744Z,238.22
2023-04-23T04:25:43.512Z,238.66
2023-04-23T04:26:43.538Z,236.78
2023-04-23T04:27:43.656Z,238.99
2023-04-23T04:28:43.609Z,236.62
2023-04-23T04:29:43.657Z,238.62
2023-04-23T04:30:43.648Z,239.54
2023-04-23T04:31:43.711Z,239.70
2023-04-23T04:32:43.715Z,240.94
2023-04-23T04:33:43.711Z,244.17
2023-04-23T04:34:43.945Z,243.55
2023-04-23T04:35:43.761Z,244.09
2023-04-23T04:36:43.793Z,248.11
2023-04-23T04:37:43.871Z,248.16
2023-04-23T04:38:43.846Z,246.82
2023-04-23T04:39:43.872Z,249.92
2023-04-23T04:40:43.887Z,248.05
2023-04-23T04:41:43.917Z,244.32
2023-04-23T04:42:43.924Z,243.00
2023-04-23T04:43:43.939Z,241.54
2023-04-23T04:44:44.041Z,241.89
2023-04-23T04:45:43.986Z,242.98
2023-04-23T04:46:44.105Z,239.78
2023-04-23T04:47:44.073Z,239.72
2023-04-23T04:48:44.074Z,240.97
2023-04-23T04:49:44.188Z,240.91
2023-04-23T04:50:44.122Z,238.43
2023-04-23T04:51:44.145Z,236.54
2023-04-23T04:52:44.167Z,235.86
2023-04-23T04:53:44.202Z,233.55
2023-04-23T04:54:44.392Z,232.72
2023-04-23T04:55:44.227Z,233.11
2023-04-23T04:56:44.272Z,234.46
2023-04-23T04:57:44.290Z,234.01
2023-04-23T04:58:44.312Z,235.43
2023-04-23T04:59:44.487Z,237.69
2023-04-23T05:00:44.522Z,235.95
2023-04-23T05:01:44.377Z,236.45
2023-04-23T05:02:44.467Z,240.94
2023-04-23T05:03:44.629Z,245.20
2023-04-23T05:04:44.637Z,246.92
2023-04-23T05:05:44.496Z,247.88
2023-04-23T05:06:44.489Z,248.13
2023-04-23T05:07:44.514Z,248.58
2023-04-23T05:08:44.560Z,248.40
2023-04-23T05:09:45.356Z,246.59
2023-04-23T05:10:44.598Z,246.25
2023-04-23T05:11:44.693Z,242.48
2023-04-23T05:12:44.630Z,245.55
2023-04-23T05:13:44.685Z,250.26
2023-04-23T05:14:44.668Z,250.00
2023-04-23T05:15:44.676Z,249.44
2023-04-23T05:16:44.744Z,248.09
2023-04-23T05:17:44.732Z,243.48
2023-04-23T05:18:44.749Z,236.89
2023-04-23T05:19:44.771Z,230.80
2023-04-23T05:20:44.786Z,227.44
2023-04-23T05:21:44.811Z,226.13
2023-04-23T05:22:44.813Z,227.38
2023-04-23T05:23:44.862Z,229.14
2023-04-23T05:24:44.873Z,228.27
2023-04-23T05:25:44.879Z,229.02
2023-04-23T05:26:44.906Z,230.80
2023-04-23T05:27:44.938Z,230.05
2023-04-23T05:28:44.950Z,229.49
2023-04-23T05:29:44.966Z,232.11
2023-04-23T05:30:45.001Z,233.27
2023-04-23T05:31:45.053Z,229.78
2023-04-23T05:32:45.080Z,226.58
2023-04-23T05:33:49.892Z,223.04
2023-04-23T05:34:46.044Z,223.09
2023-04-23T05:35:45.026Z,223.34
2023-04-23T05:36:45.040Z,224.12
2023-04-23T05:37:45.019Z,225.76
2023-04-23T05:38:45.067Z,229.34
2023-04-23T05:39:45.014Z,231.55
2023-04-23T05:40:45.003Z,236.10
2023-04-23T05:41:44.997Z,243.41
2023-04-23T05:42:44.969Z,242.63
2023-04-23T05:43:44.983Z,239.79
2023-04-23T05:44:44.994Z,236.22
2023-04-23T05:45:44.989Z,232.17
2023-04-23T05:46:44.940Z,229.86
2023-04-23T05:47:44.943Z,228.81
2023-04-23T05:48:44.949Z,228.71
2023-04-23T05:49:44.937Z,230.18
2023-04-23T05:50:44.928Z,230.33
2023-04-23T05:51:46.565Z,231.38
2023-04-23T05:52:44.936Z,235.20
2023-04-23T05:53:44.974Z,239.94
2023-04-23T05:54:44.983Z,239.78
2023-04-23T05:55:45.097Z,244.25
2023-04-23T05:56:45.014Z,240.19
2023-04-23T05:57:45.063Z,236.85
2023-04-23T05:58:45.061Z,232.98
2023-04-23T05:59:45.085Z,231.99
2023-04-23T06:00:45.104Z,230.88
2023-04-23T06:01:45.121Z,229.39
2023-04-23T06:02:45.184Z,231.23
2023-04-23T06:03:45.472Z,233.38
2023-04-23T06:04:46.286Z,231.09
2023-04-23T06:05:45.300Z,231.89
2023-04-23T06:06:45.205Z,232.70
2023-04-23T06:07:45.230Z,233.43
2023-04-23T06:08:45.261Z,234.19
2023-04-23T06:09:45.267Z,232.18
2023-04-23T06:10:45.274Z,231.40
2023-04-23T06:11:45.307Z,230.99
2023-04-23T06:12:45.305Z,230.56
2023-04-23T06:13:45.319Z,228.00
2023-04-23T06:14:45.343Z,227.06
2023-04-23T06:15:45.391Z,227.21
2023-04-23T06:16:45.383Z,226.44
2023-04-23T06:17:45.520Z,226.11
2023-04-23T06:18:45.410Z,225.54
2023-04-23T06:19:45.427Z,225.79
2023-04-23T06:20:45.461Z,223.67
2023-04-23T06:21:45.471Z,222.72
2023-04-23T06:22:45.486Z,222.56
2023-04-23T06:23:45.528Z,222.67
2023-04-23T06:24:45.532Z,223.62
2023-04-23T06:25:45.548Z,222.87
2023-04-23T06:26:45.592Z,222.68
2023-04-23T06:27:45.596Z,222.31
2023-04-23T06:28:45.616Z,222.20
2023-04-23T06:29:45.643Z,221.66
2023-04-23T06:30:45.654Z,222.52
2023-04-23T06:31:45.703Z,225.87
2023-04-23T06:32:45.688Z,227.86
2023-04-23T06:33:45.713Z,227.21
2023-04-23T06:34:59.663Z,223.95
2023-04-23T06:35:46.687Z,224.00
2023-04-23T06:36:45.705Z,223.98
2023-04-23T06:37:45.663Z,221.17
2023-04-23T06:38:45.670Z,218.70
2023-04-23T06:39:45.760Z,219.43
2023-04-23T06:40:45.652Z,217.18
2023-04-23T06:41:45.660Z,218.97
2023-04-23T06:42:45.651Z,217.17
2023-04-23T06:43:45.651Z,218.34
2023-04-23T06:44:45.650Z,216.53
2023-04-23T06:45:45.625Z,216.52
2023-04-23T06:46:45.664Z,216.71
2023-04-23T06:47:45.632Z,215.66
2023-04-23T06:48:45.619Z,215.23
2023-04-23T06:49:45.613Z,215.03
2023-04-23T06:50:45.600Z,214.30
2023-04-23T06:51:45.574Z,214.71
2023-04-23T06:52:45.571Z,216.95
2023-04-23T06:53:45.583Z,218.66
2023-04-23T06:54:45.558Z,215.88
2023-04-23T06:55:45.561Z,215.49
2023-04-23T06:56:45.547Z,215.82
2023-04-23T06:57:45.751Z,215.67
2023-04-23T06:58:45.553Z,215.75
2023-04-23T06:59:45.537Z,216.48
2023-04-23T07:00:45.540Z,217.03
2023-04-23T07:01:45.526Z,217.43
2023-04-23T07:02:45.576Z,214.65
2023-04-23T07:03:45.581Z,215.32
2023-04-23T07:04:46.110Z,214.73
2023-04-23T07:05:45.555Z,213.26
2023-04-23T07:06:45.586Z,215.19
2023-04-23T07:07:45.607Z,216.36
2023-04-23T07:08:45.617Z,212.64
2023-04-23T07:09:45.636Z,210.45
2023-04-23T07:10:45.630Z,212.19
2023-04-23T07:11:45.653Z,210.69
2023-04-23T07:12:45.666Z,210.60
2023-04-23T07:13:45.677Z,210.20
2023-04-23T07:14:45.669Z,209.19
2023-04-23T07:15:45.688Z,208.58
2023-04-23T07:16:45.694Z,209.37
2023-04-23T07:17:45.723Z,209.07
2023-04-23T07:18:45.695Z,211.96
2023-04-23T07:19:45.716Z,212.82
2023-04-23T07:20:45.747Z,212.77
2023-04-23T07:21:45.728Z,214.04
2023-04-23T07:22:45.746Z,216.57
2023-04-23T07:23:45.756Z,212.52
2023-04-23T07:24:45.926Z,211.62
2023-04-23T07:25:45.756Z,209.21
2023-04-23T07:26:45.774Z,204.84
2023-04-23T07:27:45.783Z,203.03
2023-04-23T07:28:45.795Z,202.50
2023-04-23T07:29:45.777Z,199.46
2023-04-23T07:30:45.782Z,200.63
2023-04-23T07:31:45.814Z,200.64
2023-04-23T07:32:45.853Z,196.70
2023-04-23T07:33:45.846Z,197.62
2023-04-23T07:34:45.792Z,196.02
2023-04-23T07:35:45.801Z,196.06
2023-04-23T07:36:45.773Z,194.33
2023-04-23T07:37:45.792Z,196.57
2023-04-23T07:38:45.775Z,193.88
2023-04-23T07:39:45.989Z,192.27
2023-04-23T07:40:45.771Z,192.44
2023-04-23T07:41:45.792Z,188.80
2023-04-23T07:42:45.827Z,190.10
2023-04-23T07:43:45.861Z,190.06
2023-04-23T07:44:45.859Z,188.72
2023-04-23T07:45:45.913Z,191.33
2023-04-23T07:46:45.909Z,189.33
2023-04-23T07:47:45.959Z,189.01
2023-04-23T07:48:46.001Z,193.70
2023-04-23T07:49:46.042Z,194.46
2023-04-23T07:50:46.085Z,192.68
2023-04-23T07:51:46.117Z,193.72
2023-04-23T07:52:46.183Z,188.86
2023-04-23T07:53:46.252Z,192.31
2023-04-23T07:54:46.288Z,199.57
2023-04-23T07:55:46.363Z,198.55
2023-04-23T07:56:46.417Z,196.12
2023-04-23T07:57:46.486Z,193.81
2023-04-23T07:58:46.558Z,194.87
2023-04-23T07:59:46.613Z,200.23
2023-04-23T08:00:46.659Z,195.92
2023-04-23T08:01:46.732Z,195.46
2023-04-23T08:02:46.948Z,196.63
2023-04-23T08:03:47.109Z,195.36
2023-04-23T08:04:47.078Z,200.48
2023-04-23T08:05:47.080Z,203.07
2023-04-23T08:06:47.028Z,206.31
2023-04-23T08:07:47.075Z,205.73
2023-04-23T08:08:47.145Z,204.10
2023-04-23T08:09:47.604Z,205.21
2023-04-23T08:10:47.272Z,207.88
2023-04-23T08:11:47.322Z,213.77
2023-04-23T08:12:47.364Z,221.14
2023-04-23T08:13:47.444Z,228.56
2023-04-23T08:14:47.477Z,233.40
2023-04-23T08:15:47.610Z,235.35
2023-04-23T08:16:47.593Z,236.75
2023-04-23T08:17:47.734Z,240.21
2023-04-23T08:18:58.115Z,239.08
2023-04-23T08:19:48.703Z,235.65
2023-04-23T08:20:47.704Z,234.59
2023-04-23T08:21:47.704Z,238.33
2023-04-23T08:22:47.684Z,237.67
2023-04-23T08:23:47.678Z,238.31
2023-04-23T08:24:47.684Z,237.56
2023-04-23T08:25:47.664Z,235.14
2023-04-23T08:26:47.668Z,235.51
2023-04-23T08:27:47.670Z,237.35
2023-04-23T08:28:47.655Z,232.29
2023-04-23T08:29:47.629Z,233.77
2023-04-23T08:30:47.688Z,233.21
2023-04-23T08:31:47.806Z,231.52
2023-04-23T08:32:47.839Z,233.49
2023-04-23T08:33:47.859Z,233.34
2023-04-23T08:34:47.886Z,235.77
2023-04-23T08:35:47.936Z,236.96
2023-04-23T08:36:48.003Z,235.71
2023-04-23T08:37:48.044Z,233.87
2023-04-23T08:38:48.073Z,235.15
2023-04-23T08:39:48.095Z,235.59
2023-04-23T08:40:48.152Z,235.42
2023-04-23T08:41:48.187Z,233.25
2023-04-23T08:42:48.243Z,234.07
2023-04-23T08:43:48.370Z,232.76
2023-04-23T08:44:48.334Z,234.19
2023-04-23T08:45:48.402Z,233.85
2023-04-23T08:46:48.513Z,233.31
2023-04-23T08:47:48.549Z,232.89
2023-04-23T08:48:48.550Z,231.84
2023-04-23T08:49:48.600Z,232.96
2023-04-23T08:50:48.674Z,232.30
2023-04-23T08:51:48.683Z,226.20
2023-04-23T08:52:48.731Z,231.58
2023-04-23T08:53:48.765Z,228.57
2023-04-23T08:54:48.836Z,230.50
2023-04-23T08:55:48.885Z,231.25
2023-04-23T08:56:48.929Z,228.51
2023-04-23T08:57:49.161Z,225.12
2023-04-23T08:58:49.038Z,228.66
2023-04-23T08:59:49.054Z,225.34
2023-04-23T09:00:49.171Z,228.73
2023-04-23T09:01:49.178Z,229.57
2023-04-23T09:02:49.577Z,227.69
2023-04-23T09:03:49.370Z,226.77
2023-04-23T09:04:51.340Z,228.36
2023-04-23T09:05:49.289Z,229.18
2023-04-23T09:06:49.285Z,225.55
2023-04-23T09:07:49.297Z,228.57
2023-04-23T09:08:49.284Z,230.76
2023-04-23T09:09:49.268Z,227.94
2023-04-23T09:10:49.254Z,218.72
2023-04-23T09:11:49.253Z,223.17
2023-04-23T09:12:49.256Z,221.27
2023-04-23T09:13:49.239Z,221.78
2023-04-23T09:14:49.257Z,221.15
2023-04-23T09:15:49.236Z,224.07
2023-04-23T09:16:49.266Z,222.83
2023-04-23T09:17:49.241Z,218.95
2023-04-23T09:18:49.237Z,222.96
2023-04-23T09:19:49.224Z,225.18
2023-04-23T09:20:49.207Z,223.30
2023-04-23T09:21:49.200Z,220.56
2023-04-23T09:22:49.209Z,221.25
2023-04-23T09:23:49.188Z,216.06
2023-04-23T09:24:49.170Z,215.64
2023-04-23T09:25:49.171Z,214.86
2023-04-23T09:26:49.172Z,215.98
2023-04-23T09:27:49.156Z,217.25
2023-04-23T09:28:50.155Z,219.15
2023-04-23T09:29:49.134Z,219.82
2023-04-23T09:30:49.125Z,218.98
2023-04-23T09:31:49.138Z,218.26
2023-04-23T09:32:49.134Z,216.66
2023-04-23T09:33:49.117Z,213.88
2023-04-23T09:34:49.107Z,215.98
2023-04-23T09:35:49.089Z,214.99
2023-04-23T09:36:49.108Z,205.50
2023-04-23T09:37:49.534Z,204.12
2023-04-23T09:38:49.080Z,211.00
2023-04-23T09:39:49.069Z,213.72
2023-04-23T09:40:49.068Z,213.51
2023-04-23T09:41:49.072Z,212.24
2023-04-23T09:42:49.057Z,210.38
2023-04-23T09:43:49.048Z,199.45
2023-04-23T09:44:49.040Z,200.06
2023-04-23T09:45:49.091Z,204.15
2023-04-23T09:46:49.037Z,206.85
2023-04-23T09:47:49.077Z,201.52
2023-04-23T09:48:49.011Z,199.15
2023-04-23T09:49:48.992Z,200.53
2023-04-23T09:50:48.989Z,207.57
2023-04-23T09:51:48.987Z,207.00
2023-04-23T09:52:48.975Z,201.09
2023-04-23T09:53:49.034Z,201.54
2023-04-23T09:54:49.076Z,206.32
2023-04-23T09:55:49.164Z,201.79
2023-04-23T09:56:49.149Z,201.33
2023-04-23T09:57:49.202Z,203.06
2023-04-23T09:58:49.232Z,201.17
2023-04-23T09:59:54.849Z,203.28
2023-04-23T10:00:50.272Z,203.16
2023-04-23T10:01:49.365Z,201.65
2023-04-23T10:02:49.504Z,203.35
2023-04-23T10:03:49.484Z,202.59
2023-04-23T10:04:49.445Z,200.17
2023-04-23T10:06:00.982Z,197.65
2023-04-23T10:07:02.346Z,196.03
2023-04-23T10:07:50.219Z,195.99
2023-04-23T10:08:49.230Z,197.66
2023-04-23T10:09:49.241Z,198.20
2023-04-23T10:11:49.214Z,185.21
2023-04-23T10:12:54.432Z,190.69
2023-04-23T10:13:50.193Z,190.37
2023-04-23T10:14:49.264Z,191.95
2023-04-23T10:15:49.181Z,181.53
2023-04-23T10:16:49.492Z,170.19
2023-04-23T10:17:49.160Z,177.58
2023-04-23T10:18:49.155Z,179.16
2023-04-23T10:19:49.130Z,183.71
2023-04-23T10:20:49.127Z,186.72
2023-04-23T10:21:56.182Z,191.65
2023-04-23T10:22:50.137Z,191.77
2023-04-23T10:23:49.100Z,191.87
2023-04-23T10:24:49.628Z,188.34
2023-04-23T10:25:49.103Z,172.60
2023-04-23T10:26:49.095Z,179.05
2023-04-23T10:27:53.151Z,184.08
2023-04-23T10:28:50.082Z,169.19
2023-04-23T10:29:49.074Z,159.58
2023-04-23T10:30:49.068Z,166.16
2023-04-23T10:31:49.043Z,175.99
2023-04-23T10:32:49.176Z,175.44
2023-04-23T10:33:58.457Z,176.99
2023-04-23T10:34:50.024Z,174.80
2023-04-23T10:35:49.014Z,169.74
2023-04-23T10:36:49.024Z,164.99
2023-04-23T10:37:49.040Z,175.81
2023-04-23T10:38:57.898Z,179.27
2023-04-23T10:39:50.168Z,176.08
2023-04-23T10:40:48.990Z,177.14
2023-04-23T10:41:48.991Z,163.75
2023-04-23T10:42:48.966Z,169.07
2023-04-23T10:43:48.996Z,175.56
2023-04-23T10:44:57.868Z,170.60
2023-04-23T10:45:49.953Z,170.71
2023-04-23T10:46:48.961Z,162.78
2023-04-23T10:47:49.143Z,162.62
2023-04-23T10:48:48.933Z,169.25
2023-04-23T10:49:48.936Z,166.55
2023-04-23T10:51:06.952Z,158.59
2023-04-23T10:52:48.911Z,155.14
2023-04-23T10:53:48.903Z,159.16
2023-04-23T10:54:48.881Z,160.67
2023-04-23T10:55:48.874Z,135.77
2023-04-23T10:56:48.892Z,141.67
2023-04-23T10:57:48.885Z,140.25
2023-04-23T10:58:48.875Z,122.98
2023-04-23T10:59:48.861Z,142.84
2023-04-23T11:00:48.856Z,146.37
2023-04-23T11:01:48.893Z,126.05
2023-04-23T11:02:48.992Z,116.43
2023-04-23T11:03:49.009Z,127.40
2023-04-23T11:04:48.944Z,133.63
2023-04-23T11:05:48.817Z,126.78
2023-04-23T11:06:48.807Z,118.01
2023-04-23T11:07:48.829Z,117.22
2023-04-23T11:08:49.531Z,99.63
2023-04-23T11:09:48.788Z,112.16
2023-04-23T11:10:48.788Z,102.57
2023-04-23T11:11:48.772Z,109.32
2023-04-23T11:12:48.759Z,84.74
2023-04-23T11:13:48.748Z,68.78
2023-04-23T11:14:48.758Z,75.53
2023-04-23T11:15:48.744Z,95.95
2023-04-23T11:17:48.937Z,83.27
2023-04-23T11:18:48.869Z,77.57
2023-04-23T11:19:48.922Z,81.30
2023-04-23T11:20:48.970Z,73.63
2023-04-23T11:21:49.011Z,69.43
2023-04-23T11:22:49.057Z,76.33
2023-04-23T11:23:49.114Z,64.30
2023-04-23T11:24:50.982Z,65.63
2023-04-23T11:25:49.179Z,57.32
2023-04-23T11:26:49.207Z,53.26
2023-04-23T11:27:49.264Z,51.39
2023-04-23T11:28:49.298Z,46.47
2023-04-23T11:29:49.327Z,52.87
2023-04-23T11:30:49.381Z,44.55
2023-04-23T11:32:01.390Z,42.90
2023-04-23T11:32:50.560Z,43.02
2023-04-23T11:33:49.423Z,44.34
2023-04-23T11:34:49.411Z,43.45
2023-04-23T11:35:49.380Z,53.43
2023-04-23T11:36:49.393Z,67.01
2023-04-23T11:37:49.426Z,58.99
2023-04-23T11:38:49.366Z,55.47
2023-04-23T11:39:49.387Z,68.19
2023-04-23T11:40:49.346Z,55.84
2023-04-23T11:41:49.368Z,38.22
2023-04-23T11:42:49.350Z,39.49
2023-04-23T11:43:49.323Z,34.52
2023-04-23T11:44:49.368Z,39.06
2023-04-23T11:45:49.445Z,38.21
2023-04-23T11:46:49.617Z,47.64
2023-04-23T11:47:49.554Z,50.43
2023-04-23T11:48:49.597Z,39.72
2023-04-23T11:49:49.590Z,34.28
2023-04-23T11:50:49.633Z,32.12
2023-04-23T11:51:49.695Z,25.00
2023-04-23T11:52:49.744Z,26.17
2023-04-23T11:53:49.798Z,32.92
2023-04-23T11:54:49.854Z,27.98
2023-04-23T11:55:49.884Z,31.16
2023-04-23T11:56:49.951Z,27.62
2023-04-23T11:57:50.005Z,24.74
2023-04-23T11:58:50.046Z,28.02
2023-04-23T11:59:50.083Z,34.15
2023-04-23T12:00:50.131Z,37.26
2023-04-23T12:01:50.174Z,33.17
2023-04-23T12:02:50.307Z,33.75
2023-04-23T12:03:50.426Z,30.10
2023-04-23T12:04:50.361Z,29.52
2023-04-23T12:05:50.357Z,31.04
2023-04-23T12:06:50.412Z,25.58
2023-04-23T12:07:50.453Z,25.50
2023-04-23T12:08:50.521Z,24.84
2023-04-23T12:09:50.574Z,28.62
2023-04-23T12:10:50.638Z,32.81
2023-04-23T12:11:50.656Z,28.33
2023-04-23T12:12:50.734Z,25.37
2023-04-23T12:13:50.773Z,24.58
2023-04-23T12:14:50.844Z,31.82
2023-04-23T12:15:50.923Z,32.08
2023-04-23T12:16:50.941Z,32.27
2023-04-23T12:17:51.012Z,33.63
2023-04-23T12:18:51.017Z,35.15
2023-04-23T12:19:51.077Z,24.14
2023-04-23T12:20:51.141Z,24.48
2023-04-23T12:21:51.171Z,39.96
2023-04-23T12:22:51.225Z,33.69
2023-04-23T12:23:51.254Z,36.93
2023-04-23T12:24:51.352Z,43.20
2023-04-23T12:25:51.354Z,40.95
2023-04-23T12:26:51.464Z,37.38
2023-04-23T12:27:51.512Z,35.91
2023-04-23T12:28:51.512Z,40.17
2023-04-23T12:29:51.626Z,39.53
2023-04-23T12:30:51.603Z,34.90
2023-04-23T12:31:51.697Z,35.00
2023-04-23T12:32:51.798Z,36.82
2023-04-23T12:33:51.737Z,43.04
2023-04-23T12:34:51.799Z,31.55